sensor_id;sensor_type;location;lat;lon;timestamp;P1;durP1;ratioP1;P2;durP2;ratioP2
17854;SDS011;9053;53.358;6.382;2022-12-18T00:01:47;66.77;;;25.57;;
17854;SDS011;9053;53.358;6.382;2022-12-18T00:04:18;62.53;;;25.13;;
17854;SDS011;9053;53.358;6.382;2022-12-18T00:06:50;59.30;;;24.73;;
17854;SDS011;9053;53.358;6.382;2022-12-18T00:09:20;62.77;;;25.23;;
17854;SDS011;9053;53.358;6.382;2022-12-18T00:12:07;61.03;;;25.13;;
17854;SDS011;9053;53.358;6.382;2022-12-18T00:14:41;58.77;;;24.43;;
17854;SDS011;9053;53.358;6.382;2022-12-18T00:17:13;54.17;;;23.10;;
17854;SDS011;9053;53.358;6.382;2022-12-18T00:19:43;62.60;;;25.80;;
17854;SDS011;9053;53.358;6.382;2022-12-18T00:22:13;59.27;;;24.93;;
17854;SDS011;9053;53.358;6.382;2022-12-18T00:24:42;60.07;;;25.00;;
17854;SDS011;9053;53.358;6.382;2022-12-18T00:27:15;58.00;;;24.67;;
17854;SDS011;9053;53.358;6.382;2022-12-18T00:29:44;59.70;;;24.53;;
17854;SDS011;9053;53.358;6.382;2022-12-18T00:32:14;59.10;;;25.90;;
17854;SDS011;9053;53.358;6.382;2022-12-18T00:34:44;59.83;;;25.13;;
17854;SDS011;9053;53.358;6.382;2022-12-18T00:37:14;64.27;;;26.73;;
17854;SDS011;9053;53.358;6.382;2022-12-18T00:39:47;57.57;;;24.70;;
17854;SDS011;9053;53.358;6.382;2022-12-18T00:42:20;61.03;;;25.60;;
17854;SDS011;9053;53.358;6.382;2022-12-18T00:45:02;61.47;;;26.07;;
17854;SDS011;9053;53.358;6.382;2022-12-18T00:47:38;62.23;;;24.90;;
17854;SDS011;9053;53.358;6.382;2022-12-18T00:50:08;56.13;;;24.07;;
17854;SDS011;9053;53.358;6.382;2022-12-18T00:52:39;57.17;;;23.23;;
17854;SDS011;9053;53.358;6.382;2022-12-18T00:55:09;57.63;;;23.53;;
17854;SDS011;9053;53.358;6.382;2022-12-18T00:57:42;60.93;;;23.67;;
17854;SDS011;9053;53.358;6.382;2022-12-18T01:00:13;57.83;;;25.37;;
17854;SDS011;9053;53.358;6.382;2022-12-18T01:02:44;62.57;;;24.43;;
17854;SDS011;9053;53.358;6.382;2022-12-18T01:05:14;67.97;;;25.67;;
17854;SDS011;9053;53.358;6.382;2022-12-18T01:07:44;64.20;;;25.87;;
17854;SDS011;9053;53.358;6.382;2022-12-18T01:10:14;64.20;;;25.73;;
17854;SDS011;9053;53.358;6.382;2022-12-18T01:12:46;59.23;;;23.90;;
17854;SDS011;9053;53.358;6.382;2022-12-18T01:15:16;61.03;;;25.67;;
17854;SDS011;9053;53.358;6.382;2022-12-18T01:17:46;58.60;;;25.87;;
17854;SDS011;9053;53.358;6.382;2022-12-18T01:20:16;58.90;;;25.87;;
17854;SDS011;9053;53.358;6.382;2022-12-18T01:22:46;57.47;;;23.87;;
17854;SDS011;9053;53.358;6.382;2022-12-18T01:25:16;57.13;;;24.50;;
17854;SDS011;9053;53.358;6.382;2022-12-18T01:27:48;60.20;;;24.47;;
17854;SDS011;9053;53.358;6.382;2022-12-18T01:30:18;59.93;;;24.43;;
17854;SDS011;9053;53.358;6.382;2022-12-18T01:32:48;59.73;;;24.53;;
17854;SDS011;9053;53.358;6.382;2022-12-18T01:35:17;55.33;;;23.67;;
17854;SDS011;9053;53.358;6.382;2022-12-18T01:37:47;56.00;;;24.80;;
17854;SDS011;9053;53.358;6.382;2022-12-18T01:40:17;58.03;;;23.33;;
17854;SDS011;9053;53.358;6.382;2022-12-18T01:42:51;54.03;;;22.00;;
17854;SDS011;9053;53.358;6.382;2022-12-18T01:45:23;58.90;;;23.73;;
17854;SDS011;9053;53.358;6.382;2022-12-18T01:47:56;57.60;;;24.17;;
17854;SDS011;9053;53.358;6.382;2022-12-18T01:50:29;56.80;;;23.17;;
17854;SDS011;9053;53.358;6.382;2022-12-18T01:53:03;48.13;;;22.73;;
17854;SDS011;9053;53.358;6.382;2022-12-18T01:55:37;53.63;;;22.30;;
17854;SDS011;9053;53.358;6.382;2022-12-18T01:58:12;56.63;;;23.10;;
17854;SDS011;9053;53.358;6.382;2022-12-18T02:00:42;57.67;;;23.93;;
17854;SDS011;9053;53.358;6.382;2022-12-18T02:03:12;58.13;;;23.10;;
17854;SDS011;9053;53.358;6.382;2022-12-18T02:05:44;57.20;;;23.63;;
17854;SDS011;9053;53.358;6.382;2022-12-18T02:08:17;46.03;;;20.37;;
17854;SDS011;9053;53.358;6.382;2022-12-18T02:10:53;54.80;;;21.90;;
17854;SDS011;9053;53.358;6.382;2022-12-18T02:13:36;52.80;;;22.07;;
17854;SDS011;9053;53.358;6.382;2022-12-18T02:16:12;47.83;;;20.83;;
17854;SDS011;9053;53.358;6.382;2022-12-18T02:18:51;57.43;;;23.23;;
17854;SDS011;9053;53.358;6.382;2022-12-18T02:21:27;55.77;;;22.63;;
17854;SDS011;9053;53.358;6.382;2022-12-18T02:24:08;47.00;;;21.70;;
17854;SDS011;9053;53.358;6.382;2022-12-18T02:26:50;50.43;;;22.33;;
17854;SDS011;9053;53.358;6.382;2022-12-18T02:29:25;53.03;;;22.17;;
17854;SDS011;9053;53.358;6.382;2022-12-18T02:31:58;53.80;;;23.13;;
17854;SDS011;9053;53.358;6.382;2022-12-18T02:34:32;55.13;;;21.83;;
17854;SDS011;9053;53.358;6.382;2022-12-18T02:37:07;56.70;;;22.93;;
17854;SDS011;9053;53.358;6.382;2022-12-18T02:39:41;58.87;;;22.50;;
17854;SDS011;9053;53.358;6.382;2022-12-18T02:42:16;53.60;;;21.47;;
17854;SDS011;9053;53.358;6.382;2022-12-18T02:44:48;53.43;;;22.10;;
17854;SDS011;9053;53.358;6.382;2022-12-18T02:47:19;51.57;;;20.03;;
17854;SDS011;9053;53.358;6.382;2022-12-18T02:49:53;54.53;;;20.83;;
17854;SDS011;9053;53.358;6.382;2022-12-18T02:52:30;56.73;;;22.30;;
17854;SDS011;9053;53.358;6.382;2022-12-18T02:55:08;52.17;;;20.63;;
17854;SDS011;9053;53.358;6.382;2022-12-18T02:57:49;49.53;;;20.63;;
17854;SDS011;9053;53.358;6.382;2022-12-18T03:00:24;53.27;;;21.47;;
17854;SDS011;9053;53.358;6.382;2022-12-18T03:03:00;49.13;;;21.17;;
17854;SDS011;9053;53.358;6.382;2022-12-18T03:05:36;55.73;;;20.63;;
17854;SDS011;9053;53.358;6.382;2022-12-18T03:08:12;52.37;;;22.27;;
17854;SDS011;9053;53.358;6.382;2022-12-18T03:10:48;48.90;;;20.47;;
17854;SDS011;9053;53.358;6.382;2022-12-18T03:13:26;45.80;;;19.37;;
17854;SDS011;9053;53.358;6.382;2022-12-18T03:16:01;47.87;;;19.37;;
17854;SDS011;9053;53.358;6.382;2022-12-18T03:18:33;50.97;;;21.10;;
17854;SDS011;9053;53.358;6.382;2022-12-18T03:21:07;54.47;;;21.87;;
17854;SDS011;9053;53.358;6.382;2022-12-18T03:23:39;49.40;;;21.53;;
17854;SDS011;9053;53.358;6.382;2022-12-18T03:26:12;49.23;;;21.10;;
17854;SDS011;9053;53.358;6.382;2022-12-18T03:28:49;47.37;;;21.07;;
17854;SDS011;9053;53.358;6.382;2022-12-18T03:31:23;50.97;;;21.33;;
17854;SDS011;9053;53.358;6.382;2022-12-18T03:33:56;52.07;;;19.83;;
17854;SDS011;9053;53.358;6.382;2022-12-18T03:36:28;57.80;;;20.90;;
17854;SDS011;9053;53.358;6.382;2022-12-18T03:38:58;50.73;;;21.60;;
17854;SDS011;9053;53.358;6.382;2022-12-18T03:41:28;47.23;;;20.93;;
17854;SDS011;9053;53.358;6.382;2022-12-18T03:44:06;46.20;;;19.77;;
17854;SDS011;9053;53.358;6.382;2022-12-18T03:46:43;45.53;;;20.33;;
17854;SDS011;9053;53.358;6.382;2022-12-18T03:49:22;47.13;;;20.40;;
17854;SDS011;9053;53.358;6.382;2022-12-18T03:52:01;51.70;;;21.67;;
17854;SDS011;9053;53.358;6.382;2022-12-18T03:54:34;45.33;;;20.30;;
17854;SDS011;9053;53.358;6.382;2022-12-18T03:57:06;48.97;;;21.00;;
17854;SDS011;9053;53.358;6.382;2022-12-18T03:59:45;50.00;;;20.67;;
17854;SDS011;9053;53.358;6.382;2022-12-18T04:02:19;51.97;;;20.83;;
17854;SDS011;9053;53.358;6.382;2022-12-18T04:04:52;54.30;;;21.83;;
17854;SDS011;9053;53.358;6.382;2022-12-18T04:07:25;51.63;;;20.67;;
17854;SDS011;9053;53.358;6.382;2022-12-18T04:09:56;48.70;;;20.80;;
17854;SDS011;9053;53.358;6.382;2022-12-18T04:12:30;52.77;;;22.03;;
17854;SDS011;9053;53.358;6.382;2022-12-18T04:15:03;50.93;;;20.97;;
17854;SDS011;9053;53.358;6.382;2022-12-18T04:17:33;51.03;;;20.50;;
17854;SDS011;9053;53.358;6.382;2022-12-18T04:20:04;52.77;;;21.97;;
17854;SDS011;9053;53.358;6.382;2022-12-18T04:22:34;49.33;;;20.73;;
17854;SDS011;9053;53.358;6.382;2022-12-18T04:25:04;57.63;;;22.43;;
17854;SDS011;9053;53.358;6.382;2022-12-18T04:27:35;51.67;;;20.63;;
17854;SDS011;9053;53.358;6.382;2022-12-18T04:30:08;54.63;;;23.37;;
17854;SDS011;9053;53.358;6.382;2022-12-18T04:32:38;51.97;;;21.90;;
17854;SDS011;9053;53.358;6.382;2022-12-18T04:35:14;56.33;;;22.67;;
17854;SDS011;9053;53.358;6.382;2022-12-18T04:37:44;55.47;;;22.30;;
17854;SDS011;9053;53.358;6.382;2022-12-18T04:40:14;54.03;;;22.13;;
17854;SDS011;9053;53.358;6.382;2022-12-18T04:42:44;54.10;;;22.20;;
17854;SDS011;9053;53.358;6.382;2022-12-18T04:45:16;55.77;;;23.47;;
17854;SDS011;9053;53.358;6.382;2022-12-18T04:47:46;56.50;;;23.20;;
17854;SDS011;9053;53.358;6.382;2022-12-18T04:50:16;53.13;;;21.87;;
17854;SDS011;9053;53.358;6.382;2022-12-18T04:52:45;57.57;;;24.67;;
17854;SDS011;9053;53.358;6.382;2022-12-18T04:55:15;56.10;;;22.73;;
17854;SDS011;9053;53.358;6.382;2022-12-18T04:57:45;49.17;;;22.10;;
17854;SDS011;9053;53.358;6.382;2022-12-18T05:00:18;57.27;;;23.63;;
17854;SDS011;9053;53.358;6.382;2022-12-18T05:02:48;50.97;;;22.93;;
17854;SDS011;9053;53.358;6.382;2022-12-18T05:05:18;51.23;;;22.37;;
17854;SDS011;9053;53.358;6.382;2022-12-18T05:07:48;50.73;;;21.03;;
17854;SDS011;9053;53.358;6.382;2022-12-18T05:10:17;55.13;;;22.30;;
17854;SDS011;9053;53.358;6.382;2022-12-18T05:12:47;46.63;;;21.70;;
17854;SDS011;9053;53.358;6.382;2022-12-18T05:15:32;51.57;;;21.20;;
17854;SDS011;9053;53.358;6.382;2022-12-18T05:18:02;47.07;;;20.40;;
17854;SDS011;9053;53.358;6.382;2022-12-18T05:20:33;50.27;;;20.57;;
17854;SDS011;9053;53.358;6.382;2022-12-18T05:23:03;43.50;;;19.67;;
17854;SDS011;9053;53.358;6.382;2022-12-18T05:25:32;51.53;;;21.33;;
17854;SDS011;9053;53.358;6.382;2022-12-18T05:28:02;50.90;;;21.27;;
17854;SDS011;9053;53.358;6.382;2022-12-18T05:30:35;50.13;;;21.67;;
17854;SDS011;9053;53.358;6.382;2022-12-18T05:33:05;48.77;;;21.93;;
17854;SDS011;9053;53.358;6.382;2022-12-18T05:35:34;50.07;;;20.33;;
17854;SDS011;9053;53.358;6.382;2022-12-18T05:38:04;48.17;;;20.90;;
17854;SDS011;9053;53.358;6.382;2022-12-18T05:40:34;50.37;;;20.43;;
17854;SDS011;9053;53.358;6.382;2022-12-18T05:43:04;49.37;;;21.47;;
17854;SDS011;9053;53.358;6.382;2022-12-18T05:45:39;50.53;;;20.97;;
17854;SDS011;9053;53.358;6.382;2022-12-18T05:48:09;48.90;;;20.57;;
17854;SDS011;9053;53.358;6.382;2022-12-18T05:50:43;44.97;;;20.20;;
17854;SDS011;9053;53.358;6.382;2022-12-18T05:53:14;45.13;;;19.80;;
17854;SDS011;9053;53.358;6.382;2022-12-18T05:55:45;48.60;;;20.17;;
17854;SDS011;9053;53.358;6.382;2022-12-18T05:58:16;46.50;;;19.37;;
17854;SDS011;9053;53.358;6.382;2022-12-18T06:00:48;50.47;;;20.63;;
17854;SDS011;9053;53.358;6.382;2022-12-18T06:03:20;42.23;;;19.23;;
17854;SDS011;9053;53.358;6.382;2022-12-18T06:05:57;44.83;;;19.10;;
17854;SDS011;9053;53.358;6.382;2022-12-18T06:08:27;44.37;;;18.93;;
17854;SDS011;9053;53.358;6.382;2022-12-18T06:10:57;48.27;;;19.90;;
17854;SDS011;9053;53.358;6.382;2022-12-18T06:13:26;48.80;;;20.07;;
17854;SDS011;9053;53.358;6.382;2022-12-18T06:15:59;42.83;;;18.73;;
17854;SDS011;9053;53.358;6.382;2022-12-18T06:18:31;44.87;;;19.20;;
17854;SDS011;9053;53.358;6.382;2022-12-18T06:21:02;42.10;;;18.70;;
17854;SDS011;9053;53.358;6.382;2022-12-18T06:23:32;43.27;;;19.30;;
17854;SDS011;9053;53.358;6.382;2022-12-18T06:26:06;42.23;;;19.60;;
17854;SDS011;9053;53.358;6.382;2022-12-18T06:28:36;43.17;;;19.87;;
17854;SDS011;9053;53.358;6.382;2022-12-18T06:31:10;39.40;;;18.80;;
17854;SDS011;9053;53.358;6.382;2022-12-18T06:33:40;43.33;;;18.90;;
17854;SDS011;9053;53.358;6.382;2022-12-18T06:36:11;43.73;;;19.13;;
17854;SDS011;9053;53.358;6.382;2022-12-18T06:38:43;41.70;;;18.50;;
17854;SDS011;9053;53.358;6.382;2022-12-18T06:41:13;43.80;;;19.23;;
17854;SDS011;9053;53.358;6.382;2022-12-18T06:43:45;49.13;;;19.67;;
17854;SDS011;9053;53.358;6.382;2022-12-18T06:46:17;38.30;;;17.70;;
17854;SDS011;9053;53.358;6.382;2022-12-18T06:48:47;43.37;;;18.27;;
17854;SDS011;9053;53.358;6.382;2022-12-18T06:51:19;42.53;;;18.33;;
17854;SDS011;9053;53.358;6.382;2022-12-18T06:53:50;44.37;;;19.90;;
17854;SDS011;9053;53.358;6.382;2022-12-18T06:56:22;43.90;;;19.17;;
17854;SDS011;9053;53.358;6.382;2022-12-18T06:58:52;45.53;;;18.60;;
17854;SDS011;9053;53.358;6.382;2022-12-18T07:01:24;46.10;;;18.70;;
17854;SDS011;9053;53.358;6.382;2022-12-18T07:03:55;48.80;;;18.63;;
17854;SDS011;9053;53.358;6.382;2022-12-18T07:06:25;38.10;;;17.03;;
17854;SDS011;9053;53.358;6.382;2022-12-18T07:08:55;45.13;;;18.83;;
17854;SDS011;9053;53.358;6.382;2022-12-18T07:11:25;37.07;;;17.83;;
17854;SDS011;9053;53.358;6.382;2022-12-18T07:13:55;48.33;;;19.80;;
17854;SDS011;9053;53.358;6.382;2022-12-18T07:16:28;43.20;;;18.77;;
17854;SDS011;9053;53.358;6.382;2022-12-18T07:18:57;43.37;;;17.67;;
17854;SDS011;9053;53.358;6.382;2022-12-18T07:21:27;41.17;;;17.43;;
17854;SDS011;9053;53.358;6.382;2022-12-18T07:23:57;48.00;;;19.00;;
17854;SDS011;9053;53.358;6.382;2022-12-18T07:26:27;43.03;;;17.50;;
17854;SDS011;9053;53.358;6.382;2022-12-18T07:28:57;42.40;;;19.60;;
17854;SDS011;9053;53.358;6.382;2022-12-18T07:31:30;39.90;;;17.07;;
17854;SDS011;9053;53.358;6.382;2022-12-18T07:34:00;43.10;;;18.70;;
17854;SDS011;9053;53.358;6.382;2022-12-18T07:36:30;50.80;;;20.23;;
17854;SDS011;9053;53.358;6.382;2022-12-18T07:38:59;44.93;;;18.80;;
17854;SDS011;9053;53.358;6.382;2022-12-18T07:41:29;44.03;;;19.53;;
17854;SDS011;9053;53.358;6.382;2022-12-18T07:44:00;47.23;;;18.73;;
17854;SDS011;9053;53.358;6.382;2022-12-18T07:46:34;42.37;;;18.40;;
17854;SDS011;9053;53.358;6.382;2022-12-18T07:49:04;42.03;;;19.27;;
17854;SDS011;9053;53.358;6.382;2022-12-18T07:51:34;45.17;;;19.00;;
17854;SDS011;9053;53.358;6.382;2022-12-18T07:54:04;43.00;;;19.27;;
17854;SDS011;9053;53.358;6.382;2022-12-18T07:56:34;38.03;;;16.87;;
17854;SDS011;9053;53.358;6.382;2022-12-18T07:59:04;33.80;;;17.07;;
17854;SDS011;9053;53.358;6.382;2022-12-18T08:01:36;34.53;;;15.97;;
17854;SDS011;9053;53.358;6.382;2022-12-18T08:04:08;33.00;;;15.53;;
17854;SDS011;9053;53.358;6.382;2022-12-18T08:06:38;32.17;;;16.33;;
17854;SDS011;9053;53.358;6.382;2022-12-18T08:09:13;32.20;;;15.80;;
17854;SDS011;9053;53.358;6.382;2022-12-18T08:11:43;31.77;;;15.03;;
17854;SDS011;9053;53.358;6.382;2022-12-18T08:14:13;32.43;;;15.60;;
17854;SDS011;9053;53.358;6.382;2022-12-18T08:16:45;31.03;;;15.10;;
17854;SDS011;9053;53.358;6.382;2022-12-18T08:19:15;28.53;;;14.67;;
17854;SDS011;9053;53.358;6.382;2022-12-18T08:21:45;29.60;;;13.83;;
17854;SDS011;9053;53.358;6.382;2022-12-18T08:24:15;28.77;;;14.60;;
17854;SDS011;9053;53.358;6.382;2022-12-18T08:26:44;29.37;;;14.03;;
17854;SDS011;9053;53.358;6.382;2022-12-18T08:29:37;31.53;;;15.27;;
17854;SDS011;9053;53.358;6.382;2022-12-18T08:32:09;27.80;;;13.87;;
17854;SDS011;9053;53.358;6.382;2022-12-18T08:34:39;25.33;;;13.40;;
17854;SDS011;9053;53.358;6.382;2022-12-18T08:37:09;30.00;;;14.80;;
17854;SDS011;9053;53.358;6.382;2022-12-18T08:39:39;29.53;;;14.90;;
17854;SDS011;9053;53.358;6.382;2022-12-18T08:42:08;25.57;;;13.67;;
17854;SDS011;9053;53.358;6.382;2022-12-18T08:44:51;28.53;;;14.37;;
17854;SDS011;9053;53.358;6.382;2022-12-18T08:47:23;24.50;;;13.60;;
17854;SDS011;9053;53.358;6.382;2022-12-18T08:49:53;26.50;;;14.03;;
17854;SDS011;9053;53.358;6.382;2022-12-18T08:52:23;26.60;;;13.80;;
17854;SDS011;9053;53.358;6.382;2022-12-18T08:54:54;27.80;;;14.30;;
17854;SDS011;9053;53.358;6.382;2022-12-18T08:57:24;27.70;;;14.10;;
17854;SDS011;9053;53.358;6.382;2022-12-18T08:59:54;24.73;;;13.20;;
17854;SDS011;9053;53.358;6.382;2022-12-18T09:02:26;30.53;;;15.07;;
17854;SDS011;9053;53.358;6.382;2022-12-18T09:04:56;26.50;;;14.70;;
17854;SDS011;9053;53.358;6.382;2022-12-18T09:07:26;26.73;;;14.07;;
17854;SDS011;9053;53.358;6.382;2022-12-18T09:09:56;29.63;;;13.73;;
17854;SDS011;9053;53.358;6.382;2022-12-18T09:12:26;28.37;;;14.57;;
17854;SDS011;9053;53.358;6.382;2022-12-18T09:14:56;23.10;;;13.60;;
17854;SDS011;9053;53.358;6.382;2022-12-18T09:17:28;24.87;;;13.50;;
17854;SDS011;9053;53.358;6.382;2022-12-18T09:19:58;24.97;;;13.27;;
17854;SDS011;9053;53.358;6.382;2022-12-18T09:22:28;26.83;;;14.43;;
17854;SDS011;9053;53.358;6.382;2022-12-18T09:24:58;24.53;;;13.17;;
17854;SDS011;9053;53.358;6.382;2022-12-18T09:27:27;31.03;;;13.07;;
17854;SDS011;9053;53.358;6.382;2022-12-18T09:29:57;23.63;;;12.57;;
17854;SDS011;9053;53.358;6.382;2022-12-18T09:32:30;22.70;;;13.10;;
17854;SDS011;9053;53.358;6.382;2022-12-18T09:35:00;27.33;;;13.90;;
17854;SDS011;9053;53.358;6.382;2022-12-18T09:40:57;21.90;;;13.03;;
17854;SDS011;9053;53.358;6.382;2022-12-18T09:43:33;23.43;;;13.50;;
17854;SDS011;9053;53.358;6.382;2022-12-18T09:46:16;25.47;;;14.10;;
17854;SDS011;9053;53.358;6.382;2022-12-18T09:48:52;22.83;;;12.53;;
17854;SDS011;9053;53.358;6.382;2022-12-18T09:51:28;26.03;;;17.03;;
17854;SDS011;9053;53.358;6.382;2022-12-18T09:54:05;20.70;;;12.40;;
17854;SDS011;9053;53.358;6.382;2022-12-18T09:56:40;23.00;;;12.10;;
17854;SDS011;9053;53.358;6.382;2022-12-18T09:59:15;22.20;;;12.70;;
17854;SDS011;9053;53.358;6.382;2022-12-18T10:01:50;23.07;;;12.53;;
17854;SDS011;9053;53.358;6.382;2022-12-18T10:04:23;19.77;;;11.43;;
17854;SDS011;9053;53.358;6.382;2022-12-18T10:06:58;22.80;;;12.07;;
17854;SDS011;9053;53.358;6.382;2022-12-18T10:09:37;22.50;;;12.57;;
17854;SDS011;9053;53.358;6.382;2022-12-18T10:12:13;24.03;;;13.67;;
17854;SDS011;9053;53.358;6.382;2022-12-18T10:14:50;25.53;;;13.97;;
17854;SDS011;9053;53.358;6.382;2022-12-18T10:17:27;22.80;;;13.23;;
17854;SDS011;9053;53.358;6.382;2022-12-18T10:20:13;24.53;;;13.77;;
17854;SDS011;9053;53.358;6.382;2022-12-18T10:22:48;22.27;;;12.23;;
17854;SDS011;9053;53.358;6.382;2022-12-18T10:25:28;26.57;;;14.33;;
17854;SDS011;9053;53.358;6.382;2022-12-18T10:28:07;23.27;;;13.93;;
17854;SDS011;9053;53.358;6.382;2022-12-18T10:30:40;22.00;;;12.40;;
17854;SDS011;9053;53.358;6.382;2022-12-18T10:33:12;25.03;;;12.83;;
17854;SDS011;9053;53.358;6.382;2022-12-18T10:35:50;21.97;;;12.47;;
17854;SDS011;9053;53.358;6.382;2022-12-18T10:38:22;23.37;;;13.40;;
17854;SDS011;9053;53.358;6.382;2022-12-18T10:40:54;22.10;;;12.63;;
17854;SDS011;9053;53.358;6.382;2022-12-18T10:43:26;21.70;;;12.27;;
17854;SDS011;9053;53.358;6.382;2022-12-18T10:46:02;20.23;;;11.53;;
17854;SDS011;9053;53.358;6.382;2022-12-18T10:48:49;21.33;;;12.07;;
17854;SDS011;9053;53.358;6.382;2022-12-18T10:51:25;19.67;;;10.63;;
17854;SDS011;9053;53.358;6.382;2022-12-18T10:53:57;22.13;;;12.13;;
17854;SDS011;9053;53.358;6.382;2022-12-18T10:56:33;18.63;;;11.30;;
17854;SDS011;9053;53.358;6.382;2022-12-18T10:59:05;20.00;;;11.57;;
17854;SDS011;9053;53.358;6.382;2022-12-18T11:01:45;18.77;;;11.10;;
17854;SDS011;9053;53.358;6.382;2022-12-18T11:04:18;18.43;;;11.23;;
17854;SDS011;9053;53.358;6.382;2022-12-18T11:06:56;20.63;;;11.53;;
17854;SDS011;9053;53.358;6.382;2022-12-18T11:09:30;20.43;;;10.70;;
17854;SDS011;9053;53.358;6.382;2022-12-18T11:12:01;16.17;;;10.23;;
17854;SDS011;9053;53.358;6.382;2022-12-18T11:14:33;16.00;;;9.97;;
17854;SDS011;9053;53.358;6.382;2022-12-18T11:17:17;16.23;;;9.57;;
17854;SDS011;9053;53.358;6.382;2022-12-18T11:19:52;17.70;;;9.80;;
17854;SDS011;9053;53.358;6.382;2022-12-18T11:22:27;14.60;;;8.70;;
17854;SDS011;9053;53.358;6.382;2022-12-18T11:24:58;14.90;;;9.27;;
17854;SDS011;9053;53.358;6.382;2022-12-18T11:27:56;16.00;;;9.47;;
17854;SDS011;9053;53.358;6.382;2022-12-18T11:30:29;14.53;;;9.53;;
17854;SDS011;9053;53.358;6.382;2022-12-18T11:33:06;14.27;;;9.07;;
17854;SDS011;9053;53.358;6.382;2022-12-18T11:35:41;17.23;;;9.40;;
17854;SDS011;9053;53.358;6.382;2022-12-18T11:38:23;14.10;;;8.67;;
17854;SDS011;9053;53.358;6.382;2022-12-18T11:40:56;14.00;;;8.87;;
17854;SDS011;9053;53.358;6.382;2022-12-18T11:43:29;13.03;;;8.83;;
17854;SDS011;9053;53.358;6.382;2022-12-18T11:46:04;13.47;;;8.17;;
17854;SDS011;9053;53.358;6.382;2022-12-18T11:48:45;12.93;;;7.60;;
17854;SDS011;9053;53.358;6.382;2022-12-18T11:51:21;13.20;;;7.80;;
17854;SDS011;9053;53.358;6.382;2022-12-18T11:54:00;10.80;;;7.53;;
17854;SDS011;9053;53.358;6.382;2022-12-18T11:56:43;10.43;;;6.83;;
17854;SDS011;9053;53.358;6.382;2022-12-18T11:59:17;12.10;;;6.93;;
17854;SDS011;9053;53.358;6.382;2022-12-18T12:01:56;8.93;;;6.53;;
17854;SDS011;9053;53.358;6.382;2022-12-18T12:04:48;11.03;;;6.70;;
17854;SDS011;9053;53.358;6.382;2022-12-18T12:07:37;10.37;;;6.70;;
17854;SDS011;9053;53.358;6.382;2022-12-18T12:10:20;12.53;;;7.60;;
17854;SDS011;9053;53.358;6.382;2022-12-18T12:13:07;11.37;;;6.87;;
17854;SDS011;9053;53.358;6.382;2022-12-18T12:16:00;11.73;;;7.13;;
17854;SDS011;9053;53.358;6.382;2022-12-18T12:21:39;10.00;;;6.93;;
17854;SDS011;9053;53.358;6.382;2022-12-18T12:24:16;9.40;;;6.53;;
17854;SDS011;9053;53.358;6.382;2022-12-18T12:27:00;8.93;;;6.40;;
17854;SDS011;9053;53.358;6.382;2022-12-18T12:29:42;10.33;;;7.03;;
17854;SDS011;9053;53.358;6.382;2022-12-18T12:32:44;10.87;;;6.67;;
17854;SDS011;9053;53.358;6.382;2022-12-18T12:35:26;9.67;;;6.57;;
17854;SDS011;9053;53.358;6.382;2022-12-18T12:38:06;10.17;;;6.13;;
17854;SDS011;9053;53.358;6.382;2022-12-18T12:40:43;8.87;;;6.50;;
17854;SDS011;9053;53.358;6.382;2022-12-18T12:43:32;10.17;;;6.50;;
17854;SDS011;9053;53.358;6.382;2022-12-18T12:46:15;12.43;;;6.70;;
17854;SDS011;9053;53.358;6.382;2022-12-18T12:48:51;8.43;;;5.70;;
17854;SDS011;9053;53.358;6.382;2022-12-18T12:51:26;10.60;;;5.87;;
17854;SDS011;9053;53.358;6.382;2022-12-18T12:53:58;8.33;;;6.13;;
17854;SDS011;9053;53.358;6.382;2022-12-18T12:56:32;8.80;;;5.40;;
17854;SDS011;9053;53.358;6.382;2022-12-18T12:59:13;8.20;;;5.80;;
17854;SDS011;9053;53.358;6.382;2022-12-18T13:01:49;9.03;;;5.87;;
17854;SDS011;9053;53.358;6.382;2022-12-18T13:04:30;10.23;;;6.17;;
17854;SDS011;9053;53.358;6.382;2022-12-18T13:07:06;8.43;;;6.53;;
17854;SDS011;9053;53.358;6.382;2022-12-18T13:12:55;7.77;;;5.17;;
17854;SDS011;9053;53.358;6.382;2022-12-18T13:15:29;9.27;;;5.53;;
17854;SDS011;9053;53.358;6.382;2022-12-18T13:18:14;9.70;;;6.37;;
17854;SDS011;9053;53.358;6.382;2022-12-18T13:20:48;8.70;;;5.77;;
17854;SDS011;9053;53.358;6.382;2022-12-18T13:23:27;8.30;;;5.30;;
17854;SDS011;9053;53.358;6.382;2022-12-18T13:29:00;8.93;;;6.27;;
17854;SDS011;9053;53.358;6.382;2022-12-18T13:34:31;8.77;;;5.87;;
17854;SDS011;9053;53.358;6.382;2022-12-18T13:43:35;8.97;;;5.80;;
17854;SDS011;9053;53.358;6.382;2022-12-18T13:46:19;8.77;;;5.50;;
17854;SDS011;9053;53.358;6.382;2022-12-18T13:48:56;8.07;;;5.30;;
17854;SDS011;9053;53.358;6.382;2022-12-18T13:51:29;9.77;;;5.60;;
17854;SDS011;9053;53.358;6.382;2022-12-18T13:54:02;9.20;;;5.80;;
17854;SDS011;9053;53.358;6.382;2022-12-18T13:56:45;8.90;;;5.57;;
17854;SDS011;9053;53.358;6.382;2022-12-18T13:59:17;8.10;;;5.33;;
17854;SDS011;9053;53.358;6.382;2022-12-18T14:01:51;8.73;;;5.60;;
17854;SDS011;9053;53.358;6.382;2022-12-18T14:04:29;7.57;;;5.43;;
17854;SDS011;9053;53.358;6.382;2022-12-18T14:07:01;10.20;;;5.77;;
17854;SDS011;9053;53.358;6.382;2022-12-18T14:09:34;11.10;;;5.77;;
17854;SDS011;9053;53.358;6.382;2022-12-18T14:12:06;9.53;;;5.83;;
17854;SDS011;9053;53.358;6.382;2022-12-18T14:14:58;7.23;;;5.00;;
17854;SDS011;9053;53.358;6.382;2022-12-18T14:17:30;7.97;;;5.37;;
17854;SDS011;9053;53.358;6.382;2022-12-18T14:20:04;6.60;;;5.10;;
17854;SDS011;9053;53.358;6.382;2022-12-18T14:22:42;8.37;;;5.13;;
17854;SDS011;9053;53.358;6.382;2022-12-18T14:25:16;9.27;;;5.10;;
17854;SDS011;9053;53.358;6.382;2022-12-18T14:27:50;9.37;;;5.30;;
17854;SDS011;9053;53.358;6.382;2022-12-18T14:30:27;7.63;;;5.37;;
17854;SDS011;9053;53.358;6.382;2022-12-18T14:33:00;10.00;;;5.93;;
17854;SDS011;9053;53.358;6.382;2022-12-18T14:35:34;8.43;;;5.30;;
17854;SDS011;9053;53.358;6.382;2022-12-18T14:38:17;7.43;;;5.00;;
17854;SDS011;9053;53.358;6.382;2022-12-18T14:40:54;7.73;;;4.90;;
17854;SDS011;9053;53.358;6.382;2022-12-18T14:43:27;7.90;;;5.40;;
17854;SDS011;9053;53.358;6.382;2022-12-18T14:45:57;6.70;;;4.97;;
17854;SDS011;9053;53.358;6.382;2022-12-18T14:48:36;7.60;;;4.90;;
17854;SDS011;9053;53.358;6.382;2022-12-18T14:51:17;8.30;;;5.63;;
17854;SDS011;9053;53.358;6.382;2022-12-18T14:53:52;6.53;;;4.93;;
17854;SDS011;9053;53.358;6.382;2022-12-18T14:56:25;8.70;;;5.63;;
17854;SDS011;9053;53.358;6.382;2022-12-18T14:58:57;9.43;;;5.77;;
17854;SDS011;9053;53.358;6.382;2022-12-18T15:01:29;7.63;;;5.10;;
17854;SDS011;9053;53.358;6.382;2022-12-18T15:04:01;10.87;;;5.97;;
17854;SDS011;9053;53.358;6.382;2022-12-18T15:06:36;7.90;;;5.50;;
17854;SDS011;9053;53.358;6.382;2022-12-18T15:09:20;10.77;;;5.87;;
17854;SDS011;9053;53.358;6.382;2022-12-18T15:11:55;9.30;;;6.13;;
17854;SDS011;9053;53.358;6.382;2022-12-18T15:14:32;11.17;;;6.80;;
17854;SDS011;9053;53.358;6.382;2022-12-18T15:17:05;9.80;;;6.17;;
17854;SDS011;9053;53.358;6.382;2022-12-18T15:19:43;8.67;;;5.50;;
17854;SDS011;9053;53.358;6.382;2022-12-18T15:22:20;9.87;;;6.20;;
17854;SDS011;9053;53.358;6.382;2022-12-18T15:24:55;9.03;;;5.93;;
17854;SDS011;9053;53.358;6.382;2022-12-18T15:27:28;11.43;;;5.97;;
17854;SDS011;9053;53.358;6.382;2022-12-18T15:30:11;8.97;;;5.37;;
17854;SDS011;9053;53.358;6.382;2022-12-18T15:32:47;9.83;;;5.93;;
17854;SDS011;9053;53.358;6.382;2022-12-18T15:35:18;10.40;;;6.43;;
17854;SDS011;9053;53.358;6.382;2022-12-18T15:37:52;8.73;;;6.07;;
17854;SDS011;9053;53.358;6.382;2022-12-18T15:40:22;10.47;;;6.50;;
17854;SDS011;9053;53.358;6.382;2022-12-18T15:42:53;9.03;;;6.60;;